createdAt,value
2022-10-20T00:25:31.551Z,32
2022-10-20T00:54:39.360Z,25
2022-10-20T01:23:49.597Z,26
2022-10-20T01:52:57.614Z,23
2022-10-20T02:22:08.969Z,25
2022-10-20T02:51:14.962Z,27
2022-10-20T03:20:24.863Z,25
2022-10-20T03:49:32.354Z,32
2022-10-20T04:18:43.648Z,27
2022-10-20T04:47:56.203Z,27
2022-10-20T05:17:07.936Z,31
2022-10-20T05:45:38.037Z,26
2022-10-20T06:14:33.009Z,30
2022-10-20T06:43:46.495Z,25
2022-10-20T07:12:52.024Z,20
2022-10-20T07:42:04.775Z,24
2022-10-20T08:11:19.678Z,25
2022-10-20T08:40:37.655Z,26
2022-10-20T09:09:47.486Z,26
2022-10-20T09:38:58.144Z,26
2022-10-20T10:08:09.350Z,27
2022-10-20T10:37:24.564Z,26
2022-10-20T11:06:31.641Z,26
2022-10-20T11:35:43.729Z,27
2022-10-20T12:04:55.495Z,27
2022-10-20T12:34:07.770Z,26
2022-10-20T13:03:20.068Z,23
2022-10-20T13:31:48.712Z,23
2022-10-20T14:00:53.384Z,23
2022-10-20T14:30:06.241Z,25
2022-10-20T14:59:15.713Z,27
2022-10-20T15:28:19.478Z,32
2022-10-20T15:57:13.991Z,33
2022-10-20T16:26:16.297Z,35
2022-10-20T16:55:07.565Z,40
2022-10-20T17:24:16.377Z,44
2022-10-20T17:53:14.919Z,52
2022-10-20T18:22:19.005Z,43
2022-10-20T18:51:00.150Z,37
2022-10-20T19:20:02.012Z,35
2022-10-20T19:49:43.623Z,43
2022-10-20T20:18:17.596Z,44
2022-10-20T20:47:23.336Z,42
2022-10-20T21:16:32.721Z,42
2022-10-20T21:45:43.856Z,38
2022-10-20T22:14:54.228Z,36
2022-10-20T22:44:03.200Z,30
2022-10-20T23:13:14.683Z,44
2022-10-20T23:42:27.348Z,39
